createdAt,value
2022-10-22T00:00:27.713Z,75.79
2022-10-22T00:02:58.356Z,75.69
2022-10-22T00:05:28.641Z,76.18
2022-10-22T00:07:58.841Z,76.13
2022-10-22T00:10:29.746Z,75.52
2022-10-22T00:13:00.365Z,75.45
2022-10-22T00:15:30.691Z,75.59
2022-10-22T00:18:00.903Z,75.59
2022-10-22T00:20:31.864Z,75.20
2022-10-22T00:23:02.451Z,75.53
2022-10-22T00:25:35.113Z,75.81
2022-10-22T00:28:05.674Z,76.02
2022-10-22T00:30:37.178Z,76.21
2022-10-22T00:33:07.698Z,76.02
2022-10-22T00:35:38.522Z,76.21
2022-10-22T00:38:09.014Z,76.21
2022-10-22T00:40:40.843Z,76.15
2022-10-22T00:43:13.722Z,76.15
2022-10-22T00:45:45.042Z,76.28
2022-10-22T00:48:22.022Z,76.47
2022-10-22T00:50:58.646Z,76.47
2022-10-22T00:53:44.013Z,76.91
2022-10-22T00:56:15.219Z,78.62
2022-10-22T00:58:49.244Z,76.57
2022-10-22T01:01:27.661Z,76.87
2022-10-22T01:03:58.793Z,76.55
2022-10-22T01:06:32.479Z,76.94
2022-10-22T01:09:17.822Z,77.75
2022-10-22T01:12:01.943Z,78.07
2022-10-22T01:14:48.296Z,77.80
2022-10-22T01:17:41.997Z,77.89
2022-10-22T01:20:39.581Z,77.89
2022-10-22T01:23:35.521Z,77.11
2022-10-22T01:26:20.791Z,77.50
2022-10-22T01:32:03.605Z,77.26
2022-10-22T01:34:36.820Z,77.04
2022-10-22T01:37:08.633Z,77.12
2022-10-22T01:39:42.406Z,76.37
2022-10-22T01:42:14.013Z,76.21
2022-10-22T01:44:44.964Z,76.21
2022-10-22T01:47:34.799Z,75.43
2022-10-22T01:50:25.550Z,76.60
2022-10-22T01:53:19.595Z,76.60
2022-10-22T01:56:12.661Z,75.95
2022-10-22T01:59:05.580Z,75.95
2022-10-22T02:02:01.918Z,75.42
2022-10-22T02:04:55.857Z,75.65
2022-10-22T02:07:29.138Z,75.25
2022-10-22T02:10:01.451Z,75.52
2022-10-22T02:12:34.381Z,75.46
2022-10-22T02:17:58.783Z,75.61
2022-10-22T02:20:32.454Z,77.27
2022-10-22T02:23:05.122Z,76.46
2022-10-22T02:25:38.764Z,76.87
2022-10-22T02:31:02.540Z,76.45
2022-10-22T02:33:35.803Z,76.72
2022-10-22T02:36:07.628Z,76.30
2022-10-22T02:38:40.684Z,76.30
2022-10-22T02:41:11.480Z,76.19
2022-10-22T02:43:45.539Z,75.87
2022-10-22T02:46:15.952Z,76.26
2022-10-22T02:48:46.894Z,76.21
2022-10-22T02:51:17.747Z,75.97
2022-10-22T02:53:49.129Z,75.97
2022-10-22T02:56:19.409Z,75.14
2022-10-22T02:58:49.887Z,75.50
2022-10-22T03:01:20.166Z,75.50
2022-10-22T03:03:51.233Z,76.23
2022-10-22T03:06:21.773Z,75.92
2022-10-22T03:08:52.589Z,75.55
2022-10-22T03:11:24.361Z,76.51
2022-10-22T03:13:55.950Z,75.99
2022-10-22T03:16:27.295Z,75.94
2022-10-22T03:18:57.439Z,76.21
2022-10-22T03:21:37.397Z,76.19
2022-10-22T03:24:13.425Z,76.28
2022-10-22T03:26:46.082Z,76.28
2022-10-22T03:29:17.798Z,76.93
2022-10-22T03:31:49.398Z,76.49
2022-10-22T03:34:19.837Z,76.20
2022-10-22T03:36:53.291Z,75.90
2022-10-22T03:39:24.630Z,75.47
2022-10-22T03:41:56.982Z,75.45
2022-10-22T03:44:30.812Z,75.67
2022-10-22T03:47:04.872Z,75.67
2022-10-22T03:49:35.108Z,75.16
2022-10-22T03:52:12.762Z,75.14
2022-10-22T03:54:43.594Z,75.71
2022-10-22T03:57:15.360Z,75.34
2022-10-22T04:00:06.560Z,75.82
2022-10-22T04:02:36.800Z,76.12
2022-10-22T04:05:08.275Z,76.36
2022-10-22T04:07:38.689Z,76.73
2022-10-22T04:10:09.497Z,76.63
2022-10-22T04:12:39.911Z,76.63
2022-10-22T04:15:11.686Z,76.43
2022-10-22T04:17:42.373Z,77.07
2022-10-22T04:20:13.440Z,77.07
2022-10-22T04:22:45.619Z,77.36
2022-10-22T04:25:17.747Z,77.46
2022-10-22T04:27:48.255Z,77.46
2022-10-22T04:30:19.344Z,77.42
2022-10-22T04:32:50.292Z,77.75
2022-10-22T04:35:21.329Z,77.75
2022-10-22T04:37:51.677Z,78.38
2022-10-22T04:40:22.098Z,78.55
2022-10-22T04:42:53.078Z,78.60
2022-10-22T04:45:23.889Z,78.60
2022-10-22T04:47:54.312Z,78.02
2022-10-22T04:50:24.789Z,78.21
2022-10-22T04:52:56.634Z,77.89
2022-10-22T04:55:27.304Z,78.18
2022-10-22T04:57:57.591Z,77.63
2022-10-22T05:00:28.678Z,77.53
2022-10-22T05:02:58.809Z,77.53
2022-10-22T05:05:30.600Z,77.28
2022-10-22T05:08:02.581Z,77.28
2022-10-22T05:10:33.278Z,75.95
2022-10-22T05:13:04.202Z,75.50
2022-10-22T05:15:35.107Z,75.57
2022-10-22T05:18:06.150Z,75.57
2022-10-22T05:20:41.216Z,74.91
2022-10-22T05:23:11.857Z,74.29
2022-10-22T05:25:42.945Z,74.76
2022-10-22T05:28:13.488Z,75.35
2022-10-22T05:30:45.353Z,75.35
2022-10-22T05:33:17.971Z,73.67
2022-10-22T05:35:49.021Z,73.16
2022-10-22T05:38:23.437Z,73.19
2022-10-22T05:41:01.596Z,72.74
2022-10-22T05:43:34.983Z,73.38
2022-10-22T05:46:39.305Z,73.38
2022-10-22T05:49:05.466Z,73.17
2022-10-22T05:51:37.687Z,72.88
2022-10-22T05:54:09.932Z,72.79
2022-10-22T05:56:40.517Z,73.35
2022-10-22T05:59:12.247Z,73.35
2022-10-22T06:01:43.681Z,73.59
2022-10-22T06:04:14.614Z,73.74
2022-10-22T06:06:53.594Z,73.79
2022-10-22T06:09:32.865Z,73.74
2022-10-22T06:12:04.054Z,73.74
2022-10-22T06:14:34.519Z,73.52
2022-10-22T06:17:05.480Z,73.97
2022-10-22T06:19:35.658Z,74.11
2022-10-22T06:22:06.158Z,74.40
2022-10-22T06:24:40.480Z,74.19
2022-10-22T06:27:10.851Z,73.93
2022-10-22T06:29:41.576Z,73.84
2022-10-22T06:32:11.776Z,72.99
2022-10-22T06:34:44.997Z,72.29
2022-10-22T06:37:21.553Z,71.55
2022-10-22T06:39:52.027Z,70.80
2022-10-22T06:42:22.576Z,70.09
2022-10-22T06:44:53.059Z,69.91
2022-10-22T06:47:27.271Z,69.91
2022-10-22T06:49:58.738Z,70.37
2022-10-22T06:52:29.371Z,70.69
2022-10-22T06:55:00.199Z,70.28
2022-10-22T06:57:31.324Z,70.28
2022-10-22T07:00:04.865Z,69.46
2022-10-22T07:02:35.494Z,68.87
2022-10-22T07:05:29.909Z,68.93
2022-10-22T07:08:00.915Z,68.93
2022-10-22T07:10:31.921Z,69.84
2022-10-22T07:13:02.880Z,69.19
2022-10-22T07:15:33.342Z,68.69
2022-10-22T07:18:04.154Z,68.69
2022-10-22T07:20:34.518Z,68.16
2022-10-22T07:23:12.469Z,68.08
2022-10-22T07:25:43.439Z,67.14
2022-10-22T07:28:14.534Z,67.14
2022-10-22T07:30:58.787Z,65.01
2022-10-22T07:33:34.591Z,64.31
2022-10-22T07:36:12.372Z,63.07
2022-10-22T07:38:42.629Z,62.30
2022-10-22T07:41:14.931Z,61.99
2022-10-22T07:43:46.606Z,61.99
2022-10-22T07:46:19.187Z,63.87
2022-10-22T07:48:53.912Z,63.70
2022-10-22T07:57:47.888Z,61.28
2022-10-22T08:00:29.328Z,61.28
2022-10-22T08:06:02.388Z,61.12
2022-10-22T08:08:45.199Z,60.71
2022-10-22T08:11:33.945Z,60.05
2022-10-22T08:14:09.484Z,60.03
2022-10-22T08:16:45.077Z,59.15
2022-10-22T08:19:16.362Z,59.15
2022-10-22T08:21:51.196Z,59.25
2022-10-22T08:24:43.283Z,58.90
2022-10-22T08:27:14.582Z,58.87
2022-10-22T08:29:45.341Z,58.60
2022-10-22T08:32:17.164Z,58.53
2022-10-22T08:48:31.118Z,53.82
2022-10-22T08:51:02.646Z,53.82
2022-10-22T08:53:42.904Z,53.50
2022-10-22T08:56:15.369Z,52.87
2022-10-22T08:58:49.070Z,52.28
2022-10-22T09:01:24.145Z,53.01
2022-10-22T09:04:03.287Z,53.01
2022-10-22T09:06:36.883Z,52.88
2022-10-22T09:09:11.004Z,53.81
2022-10-22T09:11:44.239Z,53.81
2022-10-22T09:14:17.402Z,54.05
2022-10-22T09:20:52.589Z,53.61
2022-10-22T09:26:33.347Z,54.37
2022-10-22T09:29:05.227Z,53.88
2022-10-22T09:31:35.603Z,53.55
2022-10-22T09:34:05.958Z,53.60
2022-10-22T09:36:38.911Z,51.65
2022-10-22T09:39:27.389Z,52.34
2022-10-22T09:41:57.866Z,52.34
2022-10-22T09:44:28.419Z,51.68
2022-10-22T09:46:59.603Z,51.72
2022-10-22T09:49:32.492Z,51.10
2022-10-22T09:52:03.859Z,51.10
2022-10-22T09:54:40.539Z,51.34
2022-10-22T09:57:19.883Z,51.62
2022-10-22T09:59:51.788Z,51.90
2022-10-22T10:02:38.320Z,51.87
2022-10-22T10:05:00.261Z,51.55
2022-10-22T10:07:36.229Z,52.04
2022-10-22T10:10:18.715Z,50.46
2022-10-22T10:13:00.762Z,50.46
2022-10-22T10:15:43.068Z,50.69
2022-10-22T10:18:31.402Z,51.26
2022-10-22T10:21:19.735Z,51.22
2022-10-22T10:24:02.397Z,51.22
2022-10-22T10:26:45.611Z,51.26
2022-10-22T10:29:34.801Z,51.05
2022-10-22T10:32:25.033Z,51.11
2022-10-22T10:35:13.164Z,50.53
2022-10-22T10:37:49.300Z,50.53
2022-10-22T10:40:31.596Z,50.30
2022-10-22T10:43:22.620Z,50.29
2022-10-22T10:48:49.057Z,50.43
2022-10-22T10:51:37.359Z,50.43
2022-10-22T10:54:16.840Z,50.28
2022-10-22T10:57:03.617Z,50.13
2022-10-22T10:59:57.376Z,50.13
2022-10-22T11:02:45.825Z,49.56
2022-10-22T11:05:40.286Z,49.87
2022-10-22T11:08:15.007Z,49.44
2022-10-22T11:10:49.280Z,49.33
2022-10-22T11:13:43.265Z,49.33
2022-10-22T11:16:31.194Z,50.16
2022-10-22T11:19:22.841Z,49.70
2022-10-22T11:22:07.323Z,49.08
2022-10-22T11:24:46.569Z,49.20
2022-10-22T11:27:46.306Z,49.20
2022-10-22T11:30:19.683Z,49.55
2022-10-22T11:33:02.359Z,50.13
2022-10-22T11:35:42.578Z,50.13
2022-10-22T11:38:19.167Z,49.63
2022-10-22T11:40:52.778Z,49.63
2022-10-22T11:43:38.100Z,49.91
2022-10-22T11:46:23.718Z,49.91
2022-10-22T11:49:06.764Z,49.98
2022-10-22T11:51:41.671Z,49.65
2022-10-22T11:54:30.384Z,49.75
2022-10-22T11:57:19.801Z,49.75
2022-10-22T11:59:54.226Z,51.01
2022-10-22T12:02:30.433Z,51.01
2022-10-22T12:05:26.679Z,51.12
2022-10-22T12:08:15.587Z,50.65
2022-10-22T12:11:06.545Z,50.70
2022-10-22T12:13:59.297Z,50.58
2022-10-22T12:19:17.232Z,50.60
2022-10-22T12:24:41.523Z,50.05
2022-10-22T12:27:26.628Z,50.24
2022-10-22T12:29:59.448Z,50.40
2022-10-22T12:32:39.922Z,50.38
2022-10-22T12:35:13.137Z,50.56
2022-10-22T12:37:43.734Z,50.56
2022-10-22T12:40:25.623Z,50.58
2022-10-22T12:42:58.779Z,50.30
2022-10-22T12:45:32.182Z,50.30
2022-10-22T12:48:05.658Z,50.20
2022-10-22T12:50:40.265Z,49.72
2022-10-22T12:53:31.384Z,49.46
2022-10-22T12:56:04.586Z,50.00
2022-10-22T12:58:41.077Z,50.15
2022-10-22T13:01:14.907Z,49.72
2022-10-22T13:03:48.759Z,50.24
2022-10-22T13:06:28.559Z,50.45
2022-10-22T13:09:01.900Z,51.41
2022-10-22T13:11:40.518Z,51.31
2022-10-22T13:14:31.245Z,51.25
2022-10-22T13:17:20.334Z,51.25
2022-10-22T13:19:57.626Z,51.57
2022-10-22T13:22:35.519Z,51.72
2022-10-22T13:25:17.989Z,51.93
2022-10-22T13:27:54.169Z,51.80
2022-10-22T13:30:30.514Z,51.65
2022-10-22T13:33:03.173Z,51.96
2022-10-22T13:38:28.162Z,52.96
2022-10-22T13:41:00.228Z,52.79
2022-10-22T13:43:30.672Z,52.79
2022-10-22T13:46:01.277Z,52.76
2022-10-22T13:48:32.216Z,52.96
2022-10-22T13:51:02.680Z,53.03
2022-10-22T13:53:34.604Z,53.45
2022-10-22T13:56:05.002Z,53.24
2022-10-22T13:58:35.320Z,53.49
2022-10-22T14:01:07.705Z,53.64
2022-10-22T14:03:40.197Z,53.64
2022-10-22T14:06:16.978Z,53.98
2022-10-22T14:08:49.530Z,54.15
2022-10-22T14:11:19.781Z,54.46
2022-10-22T14:13:50.114Z,54.24
2022-10-22T14:16:31.572Z,54.67
2022-10-22T14:19:02.835Z,55.14
2022-10-22T14:21:36.324Z,55.14
2022-10-22T14:24:08.433Z,55.86
2022-10-22T14:26:38.925Z,56.07
2022-10-22T14:29:10.791Z,56.39
2022-10-22T14:31:44.982Z,56.80
2022-10-22T14:34:16.530Z,56.80
2022-10-22T14:36:46.955Z,56.97
2022-10-22T14:39:18.639Z,57.19
2022-10-22T14:41:49.143Z,57.79
2022-10-22T14:44:19.596Z,57.79
2022-10-22T14:46:50.000Z,57.96
2022-10-22T14:49:20.234Z,57.99
2022-10-22T14:51:50.490Z,57.99
2022-10-22T14:54:20.970Z,58.04
2022-10-22T14:56:51.801Z,57.91
2022-10-22T14:59:22.167Z,57.85
2022-10-22T15:01:52.516Z,57.71
2022-10-22T15:04:23.345Z,57.35
2022-10-22T15:06:54.086Z,57.45
2022-10-22T15:09:25.236Z,57.09
2022-10-22T15:11:55.648Z,57.43
2022-10-22T15:14:25.824Z,57.39
2022-10-22T15:16:56.630Z,57.39
2022-10-22T15:19:27.429Z,56.73
2022-10-22T15:21:57.837Z,56.69
2022-10-22T15:24:29.449Z,56.47
2022-10-22T15:27:00.565Z,56.13
2022-10-22T15:29:32.216Z,56.13
2022-10-22T15:32:02.500Z,55.94
2022-10-22T15:34:36.129Z,55.94
2022-10-22T15:37:09.702Z,55.99
2022-10-22T15:39:42.708Z,55.99
2022-10-22T15:42:15.049Z,56.33
2022-10-22T15:44:45.782Z,56.57
2022-10-22T15:47:16.641Z,56.60
2022-10-22T15:49:51.233Z,56.63
2022-10-22T15:52:22.444Z,56.59
2022-10-22T15:54:54.693Z,56.72
2022-10-22T15:57:24.883Z,56.94
2022-10-22T15:59:55.326Z,56.94
2022-10-22T16:02:25.837Z,57.22
2022-10-22T16:04:56.531Z,57.22
2022-10-22T16:07:27.537Z,57.07
2022-10-22T16:10:04.801Z,57.43
2022-10-22T16:12:36.560Z,57.82
2022-10-22T16:15:08.395Z,57.71
2022-10-22T16:17:39.335Z,57.69
2022-10-22T16:20:10.946Z,58.04
2022-10-22T16:22:41.581Z,58.35
2022-10-22T16:25:12.350Z,58.82
2022-10-22T16:27:43.345Z,59.39
2022-10-22T16:30:14.710Z,59.64
2022-10-22T16:32:45.641Z,59.82
2022-10-22T16:35:16.134Z,60.08
2022-10-22T16:37:46.483Z,60.25
2022-10-22T16:40:20.077Z,60.33
2022-10-22T16:42:54.163Z,60.63
2022-10-22T16:45:24.633Z,60.40
2022-10-22T16:47:55.214Z,60.54
2022-10-22T16:50:27.337Z,60.63
2022-10-22T16:52:58.317Z,61.03
2022-10-22T16:55:28.528Z,61.17
2022-10-22T16:57:59.612Z,61.46
2022-10-22T17:00:31.675Z,61.56
2022-10-22T17:03:02.198Z,61.70
2022-10-22T17:05:34.575Z,61.86
2022-10-22T17:08:13.467Z,62.00
2022-10-22T17:10:44.348Z,62.45
2022-10-22T17:13:18.053Z,62.45
2022-10-22T17:15:49.176Z,62.28
2022-10-22T17:18:21.051Z,62.28
2022-10-22T17:20:51.357Z,63.10
2022-10-22T17:23:22.114Z,62.76
2022-10-22T17:26:02.977Z,63.24
2022-10-22T17:28:36.708Z,63.00
2022-10-22T17:31:10.108Z,62.94
2022-10-22T17:33:41.142Z,62.83
2022-10-22T17:38:56.726Z,62.93
2022-10-22T17:41:34.175Z,62.92
2022-10-22T17:44:11.892Z,62.23
2022-10-22T17:47:07.101Z,62.28
2022-10-22T17:49:43.291Z,62.28
2022-10-22T17:52:18.737Z,62.37
2022-10-22T17:55:12.743Z,62.38
2022-10-22T17:57:48.380Z,62.32
2022-10-22T18:00:24.697Z,62.56
2022-10-22T18:03:02.386Z,62.93
2022-10-22T18:05:36.505Z,62.93
2022-10-22T18:08:07.859Z,62.91
2022-10-22T18:10:39.967Z,63.13
2022-10-22T18:13:10.826Z,63.53
2022-10-22T18:15:41.485Z,63.36
2022-10-22T18:18:14.324Z,63.53
2022-10-22T18:20:47.558Z,63.62
2022-10-22T18:23:17.933Z,63.77
2022-10-22T18:25:50.120Z,64.29
2022-10-22T18:28:20.702Z,64.38
2022-10-22T18:30:51.050Z,64.58
2022-10-22T18:33:21.398Z,64.49
2022-10-22T18:35:52.827Z,64.48
2022-10-22T18:38:24.427Z,64.83
2022-10-22T18:40:55.005Z,64.69
2022-10-22T18:43:26.856Z,65.26
2022-10-22T18:45:57.172Z,65.09
2022-10-22T18:48:27.740Z,64.94
2022-10-22T18:51:05.642Z,65.60
2022-10-22T18:53:37.926Z,65.34
2022-10-22T18:56:10.903Z,65.58
2022-10-22T18:58:45.025Z,66.00
2022-10-22T19:01:24.633Z,66.02
2022-10-22T19:03:56.410Z,66.37
2022-10-22T19:06:31.997Z,66.64
2022-10-22T19:09:04.774Z,67.03
2022-10-22T19:11:36.658Z,67.05
2022-10-22T19:14:08.735Z,67.35
2022-10-22T19:16:39.803Z,67.73
2022-10-22T19:19:32.496Z,67.38
2022-10-22T19:22:02.674Z,67.44
2022-10-22T19:24:33.158Z,68.06
2022-10-22T19:27:04.146Z,68.06
2022-10-22T19:29:36.904Z,67.72
2022-10-22T19:34:39.241Z,67.92
2022-10-22T19:37:09.479Z,68.16
2022-10-22T19:39:40.215Z,67.98
2022-10-22T19:42:10.541Z,67.73
2022-10-22T19:44:40.990Z,67.77
2022-10-22T19:47:12.430Z,67.77
2022-10-22T19:49:43.555Z,67.71
2022-10-22T19:52:14.746Z,67.98
2022-10-22T19:54:45.355Z,67.98
2022-10-22T19:57:17.569Z,67.98
2022-10-22T19:59:48.581Z,68.12
2022-10-22T20:02:19.581Z,68.12
2022-10-22T20:04:50.249Z,68.10
2022-10-22T20:07:20.734Z,68.25
2022-10-22T20:09:50.930Z,68.33
2022-10-22T20:12:22.218Z,68.04
2022-10-22T20:14:52.559Z,68.27
2022-10-22T20:17:23.765Z,68.27
2022-10-22T20:19:54.081Z,68.48
2022-10-22T20:22:25.592Z,68.74
2022-10-22T20:24:56.016Z,68.89
2022-10-22T20:27:29.484Z,69.01
2022-10-22T20:30:00.539Z,69.11
2022-10-22T20:32:31.258Z,69.27
2022-10-22T20:35:03.604Z,69.27
2022-10-22T20:37:34.472Z,68.89
2022-10-22T20:40:05.116Z,69.46
2022-10-22T20:42:36.045Z,68.87
2022-10-22T20:45:08.177Z,69.04
2022-10-22T20:47:51.136Z,69.04
2022-10-22T20:50:14.072Z,69.12
2022-10-22T20:52:45.091Z,69.20
2022-10-22T20:57:46.667Z,69.44
2022-10-22T21:00:20.982Z,69.63
2022-10-22T21:02:51.620Z,69.47
2022-10-22T21:05:22.107Z,69.56
2022-10-22T21:07:52.897Z,69.96
2022-10-22T21:10:30.210Z,70.05
2022-10-22T21:12:58.037Z,70.65
2022-10-22T21:15:28.800Z,70.14
2022-10-22T21:18:06.650Z,70.19
2022-10-22T21:20:38.984Z,70.39
2022-10-22T21:23:11.520Z,70.39
2022-10-22T21:25:43.374Z,70.29
2022-10-22T21:28:13.901Z,70.20
2022-10-22T21:30:50.467Z,70.53
2022-10-22T21:33:21.432Z,70.53
2022-10-22T21:35:54.174Z,71.02
2022-10-22T21:38:25.781Z,70.96
2022-10-22T21:40:56.641Z,71.13
2022-10-22T21:43:27.170Z,71.11
2022-10-22T21:46:08.905Z,71.28
2022-10-22T21:48:40.415Z,71.28
2022-10-22T21:51:16.048Z,71.27
2022-10-22T21:53:55.406Z,71.80
2022-10-22T21:56:28.861Z,71.72
2022-10-22T21:59:02.009Z,71.72
2022-10-22T22:01:36.405Z,71.26
2022-10-22T22:04:09.009Z,71.38
2022-10-22T22:06:39.721Z,71.31
2022-10-22T22:09:11.263Z,71.48
2022-10-22T22:11:44.117Z,71.39
2022-10-22T22:14:15.678Z,71.99
2022-10-22T22:16:46.762Z,71.99
2022-10-22T22:19:17.908Z,72.02
2022-10-22T22:21:50.563Z,72.17
2022-10-22T22:24:21.716Z,72.21
2022-10-22T22:26:52.478Z,72.21
2022-10-22T22:29:28.093Z,72.65
2022-10-22T22:31:58.468Z,72.93
2022-10-22T22:34:29.005Z,72.81
2022-10-22T22:37:00.358Z,72.67
2022-10-22T22:39:34.478Z,73.09
2022-10-22T22:42:16.055Z,73.13
2022-10-22T22:44:49.307Z,73.62
2022-10-22T22:47:19.703Z,73.99
2022-10-22T22:49:52.125Z,74.13
2022-10-22T22:52:22.509Z,73.57
2022-10-22T22:54:52.982Z,73.44
2022-10-22T22:57:23.544Z,73.84
2022-10-22T22:59:53.916Z,73.92
2022-10-22T23:02:24.320Z,73.41
2022-10-22T23:04:56.631Z,73.40
2022-10-22T23:07:27.081Z,73.31
2022-10-22T23:09:57.372Z,73.72
2022-10-22T23:12:27.973Z,73.72
2022-10-22T23:14:58.970Z,73.43
2022-10-22T23:17:29.679Z,73.43
2022-10-22T23:20:02.122Z,73.64
2022-10-22T23:22:32.754Z,73.64
2022-10-22T23:25:05.125Z,74.26
2022-10-22T23:27:38.962Z,74.64
2022-10-22T23:30:10.319Z,74.52
2022-10-22T23:32:40.863Z,74.52
2022-10-22T23:35:12.768Z,74.69
2022-10-22T23:37:44.139Z,75.03
2022-10-22T23:40:15.208Z,74.67
2022-10-22T23:42:45.401Z,74.67
2022-10-22T23:45:15.801Z,74.40
2022-10-22T23:47:46.256Z,74.41
2022-10-22T23:50:16.532Z,75.25
2022-10-22T23:52:46.846Z,74.50
2022-10-22T23:55:17.847Z,74.51
2022-10-22T23:57:48.951Z,74.51
